Pagina principale
METAR-TAF:

METAR-TAF

Aeroporti :

Büchel, Germania

latitudine: 50-10N, longitudine: 007-04E, altezza: 478 m

Osservazione

Il bollettino è stato emesso 12 minuti fa, alle 12:11 UTC
Vento 8 kt da nord/nord-est
Temperature 25°C
Umidità 34%
Pressione 1027 hPa
Visibilità 10 km o più

METAR: ETSB 271211Z 03008KT 9999 25/08 Q1027 BLU+

Ora: 14:23 (12:23 UTC)


TAF: mancante

Osservazioni e previsioni meteorologiche di più di 4000 aeroporti (messaggi METAR e TAF).

Le stazioni disponibili sono rappresentate dai dischi gialli e rossi sulla carta.

Puntare il mouse per vedere il nome della stazione.

Clicca sopra per visualizzare le osservazioni e previsioni meteorologiche.

Per cambiare la mappa : fare clic sui pulsanti verdi con una croce nera per ingrandire, il pulsante verde con un trattino per diminuire, o sulla freccia verde per le mappe adiacenti.


METAR-TAF: